createdAt,value
2022-07-25T00:01:44.144Z,8.20
2022-07-25T00:04:12.510Z,9.85
2022-07-25T00:06:40.445Z,8.65
2022-07-25T00:09:07.350Z,8.18
2022-07-25T00:11:34.117Z,11.13
2022-07-25T00:14:00.731Z,10.70
2022-07-25T00:16:27.370Z,9.05
2022-07-25T00:18:54.063Z,10.43
2022-07-25T00:21:20.821Z,10.10
2022-07-25T00:23:47.498Z,10.85
2022-07-25T00:26:14.533Z,11.27
2022-07-25T00:28:41.210Z,9.70
2022-07-25T00:31:07.938Z,8.90
2022-07-25T00:33:34.604Z,9.05
2022-07-25T00:36:01.307Z,9.50
2022-07-25T00:38:27.987Z,9.80
2022-07-25T00:40:55.738Z,9.13
2022-07-25T00:43:22.810Z,10.53
2022-07-25T00:45:49.565Z,8.97
2022-07-25T00:48:16.224Z,11.83
2022-07-25T00:50:43.003Z,9.60
2022-07-25T00:53:09.636Z,12.87
2022-07-25T00:55:36.656Z,10.47
2022-07-25T00:58:03.431Z,11.53
2022-07-25T01:00:30.457Z,7.50
2022-07-25T01:02:57.486Z,9.13
2022-07-25T01:05:24.140Z,8.37
2022-07-25T01:07:52.111Z,9.77
2022-07-25T01:10:18.736Z,10.13
2022-07-25T01:12:48.682Z,9.97
2022-07-25T01:15:17.655Z,8.47
2022-07-25T01:17:44.402Z,9.13
2022-07-25T01:20:21.726Z,10.90
2022-07-25T01:22:48.997Z,8.33
2022-07-25T01:25:16.220Z,9.87
2022-07-25T01:27:43.262Z,11.03
2022-07-25T01:30:12.077Z,9.87
2022-07-25T01:32:39.002Z,10.20
2022-07-25T01:35:06.640Z,9.80
2022-07-25T01:37:33.597Z,9.57
2022-07-25T01:40:00.859Z,9.70
2022-07-25T01:42:28.137Z,9.03
2022-07-25T01:44:55.430Z,9.87
2022-07-25T01:47:22.179Z,9.07
2022-07-25T01:49:49.130Z,8.77
2022-07-25T01:52:15.847Z,9.23
2022-07-25T01:54:43.499Z,10.10
2022-07-25T01:57:11.475Z,10.57
2022-07-25T01:59:40.602Z,9.10
2022-07-25T02:02:09.094Z,9.10
2022-07-25T02:04:36.605Z,10.63
2022-07-25T02:07:04.464Z,10.50
2022-07-25T02:09:32.977Z,10.00
2022-07-25T02:11:59.611Z,8.43
2022-07-25T02:14:26.229Z,9.00
2022-07-25T02:16:53.821Z,10.47
2022-07-25T02:19:20.548Z,9.07
2022-07-25T02:21:47.245Z,10.13
2022-07-25T02:24:13.850Z,9.33
2022-07-25T02:26:40.454Z,8.57
2022-07-25T02:29:07.107Z,10.20
2022-07-25T02:31:33.828Z,9.60
2022-07-25T02:34:00.492Z,9.57
2022-07-25T02:36:27.184Z,13.17
2022-07-25T02:38:53.822Z,10.03
2022-07-25T02:41:20.437Z,15.73
2022-07-25T02:43:47.080Z,11.80
2022-07-25T02:46:13.736Z,10.37
2022-07-25T02:48:40.458Z,9.00
2022-07-25T02:51:07.305Z,9.80
2022-07-25T02:53:56.205Z,9.50
2022-07-25T02:56:21.295Z,8.50
2022-07-25T02:58:48.107Z,10.70
2022-07-25T03:01:15.283Z,14.60
2022-07-25T03:03:41.991Z,10.37
2022-07-25T03:06:08.730Z,9.73
2022-07-25T03:08:35.454Z,10.20
2022-07-25T03:11:03.089Z,10.33
2022-07-25T03:13:29.833Z,9.50
2022-07-25T03:15:56.446Z,10.30
2022-07-25T03:18:23.172Z,8.93
2022-07-25T03:20:49.950Z,11.13
2022-07-25T03:23:16.559Z,12.43
2022-07-25T03:25:43.181Z,10.13
2022-07-25T03:28:09.860Z,12.00
2022-07-25T03:30:36.500Z,13.03
2022-07-25T03:33:03.217Z,11.73
2022-07-25T03:35:29.870Z,12.10
2022-07-25T03:37:56.515Z,13.73
2022-07-25T03:40:23.274Z,13.10
2022-07-25T03:42:49.871Z,11.50
2022-07-25T03:45:17.792Z,12.60
2022-07-25T03:47:44.542Z,13.13
2022-07-25T03:50:11.764Z,10.60
2022-07-25T03:52:38.513Z,10.50
2022-07-25T03:55:10.013Z,11.07
2022-07-25T03:57:36.903Z,12.00
2022-07-25T04:00:09.019Z,11.03
2022-07-25T04:02:37.587Z,10.30
2022-07-25T04:05:08.419Z,10.93
2022-07-25T04:07:36.184Z,11.30
2022-07-25T04:10:04.600Z,10.17
2022-07-25T04:12:31.493Z,10.33
2022-07-25T04:14:58.196Z,12.07
2022-07-25T04:17:25.807Z,11.30
2022-07-25T04:19:52.563Z,11.33
2022-07-25T04:22:19.443Z,12.00
2022-07-25T04:24:46.058Z,10.40
2022-07-25T04:27:12.721Z,12.80
2022-07-25T04:29:39.564Z,11.23
2022-07-25T04:32:06.657Z,13.13
2022-07-25T04:34:33.556Z,13.73
2022-07-25T04:37:00.187Z,9.83
2022-07-25T04:39:26.835Z,11.63
2022-07-25T04:41:53.458Z,10.77
2022-07-25T04:44:20.056Z,8.47
2022-07-25T04:46:46.674Z,12.67
2022-07-25T04:49:13.774Z,12.50
2022-07-25T04:51:40.417Z,12.47
2022-07-25T04:54:07.459Z,13.33
2022-07-25T04:56:34.318Z,13.50
2022-07-25T04:59:04.977Z,12.03
2022-07-25T05:01:34.152Z,11.70
2022-07-25T05:04:00.773Z,10.40
2022-07-25T05:06:27.427Z,11.20
2022-07-25T05:08:54.148Z,11.97
2022-07-25T05:11:20.844Z,11.40
2022-07-25T05:13:47.506Z,9.83
2022-07-25T05:16:14.244Z,10.47
2022-07-25T05:18:40.975Z,14.17
2022-07-25T05:21:11.116Z,12.70
2022-07-25T05:23:37.768Z,10.10
2022-07-25T05:26:04.468Z,10.33
2022-07-25T05:28:31.100Z,11.50
2022-07-25T05:30:57.800Z,13.23
2022-07-25T05:33:24.846Z,11.00
2022-07-25T05:35:51.449Z,9.70
2022-07-25T05:38:18.213Z,12.57
2022-07-25T05:40:45.788Z,12.75
2022-07-25T05:43:12.401Z,9.60
2022-07-25T05:45:38.996Z,15.77
2022-07-25T05:48:06.549Z,11.57
2022-07-25T05:50:33.191Z,13.10
2022-07-25T05:52:59.788Z,12.77
2022-07-25T05:55:26.464Z,12.48
2022-07-25T05:57:53.078Z,13.70
2022-07-25T06:00:19.845Z,13.15
2022-07-25T06:02:46.605Z,11.63
2022-07-25T06:05:13.355Z,14.45
2022-07-25T06:07:40.069Z,15.85
2022-07-25T06:10:07.049Z,9.85
2022-07-25T06:12:36.537Z,9.02
2022-07-25T06:15:04.169Z,10.55
2022-07-25T06:17:32.717Z,8.60
2022-07-25T06:19:59.571Z,8.90
2022-07-25T06:22:26.210Z,10.55
2022-07-25T06:24:52.839Z,10.27
2022-07-25T06:27:21.611Z,11.13
2022-07-25T06:29:49.846Z,9.32
2022-07-25T06:32:16.441Z,8.75
2022-07-25T06:34:43.540Z,10.35
2022-07-25T06:37:10.279Z,10.75
2022-07-25T06:39:37.164Z,9.07
2022-07-25T06:42:04.530Z,8.80
2022-07-25T06:44:34.813Z,9.77
2022-07-25T06:47:02.850Z,9.05
2022-07-25T06:49:29.544Z,10.95
2022-07-25T06:51:56.157Z,10.23
2022-07-25T06:54:23.086Z,9.38
2022-07-25T06:56:49.747Z,10.65
2022-07-25T06:59:16.412Z,10.68
2022-07-25T07:01:44.299Z,13.45
2022-07-25T07:04:12.569Z,8.88
2022-07-25T07:06:39.850Z,11.57
2022-07-25T07:09:06.862Z,11.02
2022-07-25T07:11:34.946Z,12.45
2022-07-25T07:14:05.944Z,11.93
2022-07-25T07:16:32.900Z,10.98
2022-07-25T07:18:59.630Z,11.80
2022-07-25T07:21:26.355Z,11.68
2022-07-25T07:23:53.612Z,10.98
2022-07-25T07:26:21.326Z,9.93
2022-07-25T07:28:48.117Z,10.52
2022-07-25T07:31:18.012Z,11.60
2022-07-25T07:33:45.550Z,8.63
2022-07-25T07:36:12.321Z,10.82
2022-07-25T07:38:39.855Z,11.27
2022-07-25T07:41:06.499Z,10.00
2022-07-25T07:43:33.211Z,10.55
2022-07-25T07:46:01.185Z,13.48
2022-07-25T07:48:30.088Z,11.27
2022-07-25T07:50:57.322Z,10.30
2022-07-25T07:53:43.973Z,9.70
2022-07-25T07:56:12.033Z,10.90
2022-07-25T07:58:38.748Z,13.15
2022-07-25T08:01:05.568Z,12.30
2022-07-25T08:03:32.380Z,13.82
2022-07-25T08:05:59.180Z,13.05
2022-07-25T08:08:30.942Z,10.68
2022-07-25T08:10:59.340Z,8.75
2022-07-25T08:13:28.862Z,13.63
2022-07-25T08:15:58.869Z,11.02
2022-07-25T08:18:26.959Z,9.50
2022-07-25T08:20:53.624Z,10.35
2022-07-25T08:23:20.552Z,14.20
2022-07-25T08:25:47.984Z,10.45
2022-07-25T08:28:15.100Z,11.00
2022-07-25T08:30:42.164Z,10.30
2022-07-25T08:33:12.449Z,11.38
2022-07-25T08:35:42.321Z,12.10
2022-07-25T08:38:11.372Z,9.70
2022-07-25T08:40:38.311Z,11.70
2022-07-25T08:43:05.695Z,11.88
2022-07-25T08:45:33.242Z,11.90
2022-07-25T08:47:59.866Z,13.13
2022-07-25T08:50:28.518Z,10.82
2022-07-25T08:53:16.172Z,10.98
2022-07-25T08:55:45.048Z,8.98
2022-07-25T08:58:14.125Z,12.75
2022-07-25T09:00:41.829Z,11.60
2022-07-25T09:03:09.984Z,11.35
2022-07-25T09:05:37.862Z,10.30
2022-07-25T09:08:17.288Z,14.50
2022-07-25T09:10:51.982Z,12.90
2022-07-25T09:13:21.196Z,8.93
2022-07-25T09:15:53.713Z,12.15
2022-07-25T09:18:25.667Z,11.05
2022-07-25T09:20:58.989Z,11.27
2022-07-25T09:23:28.677Z,9.63
2022-07-25T09:26:21.508Z,10.57
2022-07-25T09:28:52.225Z,9.25
2022-07-25T09:31:19.054Z,11.13
2022-07-25T09:33:56.275Z,10.13
2022-07-25T09:36:23.572Z,10.18
2022-07-25T09:38:54.756Z,8.57
2022-07-25T09:41:21.944Z,10.50
2022-07-25T09:43:48.725Z,9.55
2022-07-25T09:46:15.376Z,10.70
2022-07-25T09:48:45.401Z,10.27
2022-07-25T09:51:12.223Z,9.10
2022-07-25T09:53:40.276Z,7.88
2022-07-25T09:56:08.487Z,8.82
2022-07-25T09:58:35.178Z,11.88
2022-07-25T10:01:06.330Z,10.30
2022-07-25T10:03:51.092Z,9.75
2022-07-25T10:06:52.753Z,10.05
2022-07-25T10:09:19.574Z,9.82
2022-07-25T10:12:09.140Z,8.25
2022-07-25T10:14:37.112Z,7.55
2022-07-25T10:17:04.497Z,8.07
2022-07-25T10:19:49.922Z,8.40
2022-07-25T10:22:29.428Z,10.80
2022-07-25T10:25:23.657Z,8.35
2022-07-25T10:27:58.177Z,9.75
2022-07-25T10:30:27.768Z,7.75
2022-07-25T10:32:58.521Z,10.45
2022-07-25T10:35:27.144Z,10.10
2022-07-25T10:37:56.235Z,8.00
2022-07-25T10:40:30.281Z,9.30
2022-07-25T10:43:02.282Z,8.35
2022-07-25T10:45:38.872Z,7.60
2022-07-25T10:48:20.200Z,10.52
2022-07-25T10:50:56.879Z,7.75
2022-07-25T10:53:33.561Z,7.22
2022-07-25T10:56:06.627Z,10.75
2022-07-25T10:58:45.451Z,9.80
2022-07-25T11:01:14.209Z,9.27
2022-07-25T11:03:44.948Z,6.05
2022-07-25T11:06:14.820Z,8.13
2022-07-25T11:08:43.082Z,11.65
2022-07-25T11:11:11.032Z,6.20
2022-07-25T11:13:42.317Z,6.72
2022-07-25T11:16:09.761Z,7.57
2022-07-25T11:18:38.873Z,7.75
2022-07-25T11:21:07.674Z,6.43
2022-07-25T11:23:35.724Z,6.28
2022-07-25T11:26:20.662Z,6.60
2022-07-25T11:28:49.444Z,5.57
2022-07-25T11:31:17.750Z,5.40
2022-07-25T11:33:49.691Z,5.57
2022-07-25T11:36:16.796Z,6.38
2022-07-25T11:38:49.243Z,6.68
2022-07-25T11:41:15.880Z,6.30
2022-07-25T11:43:48.737Z,5.72
2022-07-25T11:46:15.521Z,6.03
2022-07-25T11:48:42.845Z,5.70
2022-07-25T11:51:19.017Z,7.90
2022-07-25T11:53:50.867Z,8.57
2022-07-25T11:56:41.212Z,10.93
2022-07-25T11:59:07.627Z,8.73
2022-07-25T12:01:37.670Z,5.28
2022-07-25T12:04:16.146Z,8.13
2022-07-25T12:06:45.735Z,6.75
2022-07-25T12:09:20.928Z,5.38
2022-07-25T12:11:49.153Z,8.57
2022-07-25T12:14:16.607Z,10.93
2022-07-25T12:16:43.499Z,5.85
2022-07-25T12:19:18.941Z,5.72
2022-07-25T12:21:46.416Z,6.78
2022-07-25T12:24:13.208Z,5.65
2022-07-25T12:26:39.896Z,6.10
2022-07-25T12:29:06.945Z,9.85
2022-07-25T12:31:33.818Z,7.05
2022-07-25T12:34:00.576Z,6.15
2022-07-25T12:36:27.195Z,11.75
2022-07-25T12:38:53.942Z,7.97
2022-07-25T12:41:22.587Z,6.45
2022-07-25T12:43:49.735Z,5.78
2022-07-25T12:46:16.943Z,9.23
2022-07-25T12:48:44.079Z,7.45
2022-07-25T12:51:10.927Z,6.25
2022-07-25T12:53:41.957Z,6.50
2022-07-25T12:56:09.664Z,5.68
2022-07-25T12:58:36.713Z,6.45
2022-07-25T13:01:04.392Z,5.72
2022-07-25T13:03:31.257Z,6.82
2022-07-25T13:05:57.856Z,6.65
2022-07-25T13:08:25.020Z,5.80
2022-07-25T13:10:51.727Z,5.80
2022-07-25T13:13:18.354Z,6.90
2022-07-25T13:15:45.008Z,7.30
2022-07-25T13:18:11.694Z,5.55
2022-07-25T13:20:38.329Z,11.27
2022-07-25T13:23:06.163Z,5.88
2022-07-25T13:25:33.814Z,7.50
2022-07-25T13:28:02.118Z,8.15
2022-07-25T13:30:28.812Z,10.52
2022-07-25T13:32:55.871Z,9.48
2022-07-25T13:35:26.974Z,8.05
2022-07-25T13:37:58.290Z,6.22
2022-07-25T13:40:24.953Z,6.38
2022-07-25T13:42:52.675Z,8.85
2022-07-25T13:45:19.294Z,5.70
2022-07-25T13:47:46.077Z,6.57
2022-07-25T13:50:12.781Z,8.77
2022-07-25T13:52:39.522Z,5.70
2022-07-25T13:55:06.662Z,8.80
2022-07-25T13:57:33.624Z,6.22
2022-07-25T14:00:00.256Z,7.50
2022-07-25T14:02:26.992Z,7.43
2022-07-25T14:04:54.137Z,7.63
2022-07-25T14:07:20.801Z,13.48
2022-07-25T14:09:47.435Z,7.32
2022-07-25T14:12:14.045Z,6.35
2022-07-25T14:14:40.688Z,6.80
2022-07-25T14:17:07.509Z,6.68
2022-07-25T14:19:34.165Z,6.13
2022-07-25T14:22:00.761Z,6.00
2022-07-25T14:24:27.375Z,5.63
2022-07-25T14:26:55.026Z,6.20
2022-07-25T14:29:25.962Z,9.38
2022-07-25T14:31:55.760Z,6.28
2022-07-25T14:34:22.465Z,6.35
2022-07-25T14:36:49.200Z,6.78
2022-07-25T14:39:16.201Z,7.50
2022-07-25T14:41:42.900Z,6.07
2022-07-25T14:44:09.582Z,5.70
2022-07-25T14:46:38.416Z,5.00
2022-07-25T14:49:05.480Z,5.68
2022-07-25T14:51:32.940Z,5.30
2022-07-25T14:53:59.594Z,6.95
2022-07-25T14:56:26.405Z,6.70
2022-07-25T14:58:53.011Z,6.10
2022-07-25T15:01:21.049Z,7.18
2022-07-25T15:03:47.997Z,5.38
2022-07-25T15:06:17.273Z,6.15
2022-07-25T15:08:44.698Z,6.50
2022-07-25T15:11:11.671Z,5.13
2022-07-25T15:13:38.381Z,7.30
2022-07-25T15:16:05.254Z,6.55
2022-07-25T15:18:32.022Z,5.88
2022-07-25T15:20:58.944Z,6.75
2022-07-25T15:23:28.633Z,5.90
2022-07-25T15:26:01.587Z,11.95
2022-07-25T15:28:28.970Z,7.30
2022-07-25T15:30:55.725Z,7.57
2022-07-25T15:33:22.457Z,5.85
2022-07-25T15:35:49.091Z,7.70
2022-07-25T15:38:16.828Z,6.10
2022-07-25T15:40:44.609Z,10.70
2022-07-25T15:43:11.877Z,6.75
2022-07-25T15:45:43.626Z,5.75
2022-07-25T15:48:11.413Z,7.40
2022-07-25T15:50:42.798Z,7.80
2022-07-25T15:53:10.495Z,8.65
2022-07-25T15:55:38.548Z,6.03
2022-07-25T15:58:05.926Z,6.00
2022-07-25T16:00:33.570Z,8.13
2022-07-25T16:03:00.278Z,6.63
2022-07-25T16:05:27.507Z,8.45
2022-07-25T16:07:54.219Z,8.07
2022-07-25T16:10:20.959Z,9.30
2022-07-25T16:12:47.620Z,10.25
2022-07-25T16:15:14.406Z,7.72
2022-07-25T16:17:41.044Z,7.63
2022-07-25T16:20:09.916Z,10.00
2022-07-25T16:22:36.858Z,6.38
2022-07-25T16:25:04.374Z,7.00
2022-07-25T16:27:31.889Z,11.05
2022-07-25T16:29:58.908Z,7.63
2022-07-25T16:32:25.578Z,8.93
2022-07-25T16:34:52.454Z,15.48
2022-07-25T16:37:20.310Z,6.63
2022-07-25T16:39:47.017Z,6.32
2022-07-25T16:42:13.640Z,9.18
2022-07-25T16:44:40.306Z,7.50
2022-07-25T16:47:08.361Z,8.93
2022-07-25T16:49:35.051Z,8.50
2022-07-25T16:52:01.739Z,8.32
2022-07-25T16:54:29.440Z,6.65
2022-07-25T16:56:59.653Z,9.05
2022-07-25T16:59:26.834Z,10.18
2022-07-25T17:01:53.529Z,10.27
2022-07-25T17:04:20.276Z,10.80
2022-07-25T17:06:47.039Z,8.90
2022-07-25T17:09:13.724Z,6.18
2022-07-25T17:11:40.477Z,7.80
2022-07-25T17:14:07.104Z,5.80
2022-07-25T17:16:33.862Z,4.63
2022-07-25T17:19:02.099Z,4.80
2022-07-25T17:21:28.938Z,4.57
2022-07-25T17:23:56.402Z,4.10
2022-07-25T17:26:23.123Z,4.80
2022-07-25T17:28:49.818Z,5.07
2022-07-25T17:31:16.686Z,6.78
2022-07-25T17:33:43.449Z,4.15
2022-07-25T17:36:10.193Z,5.78
2022-07-25T17:38:37.767Z,3.75
2022-07-25T17:41:04.813Z,5.47
2022-07-25T17:43:31.774Z,3.38
2022-07-25T17:45:58.398Z,4.43
2022-07-25T17:48:25.030Z,7.00
2022-07-25T17:50:52.346Z,5.00
2022-07-25T17:53:19.141Z,5.88
2022-07-25T17:55:45.845Z,7.85
2022-07-25T17:58:12.605Z,6.60
2022-07-25T18:00:39.932Z,6.15
2022-07-25T18:03:06.890Z,4.70
2022-07-25T18:05:33.927Z,6.18
2022-07-25T18:08:02.715Z,7.45
2022-07-25T18:10:29.613Z,4.38
2022-07-25T18:12:56.248Z,7.35
2022-07-25T18:15:22.929Z,4.88
2022-07-25T18:17:49.553Z,5.10
2022-07-25T18:20:16.875Z,4.13
2022-07-25T18:22:43.691Z,4.18
2022-07-25T18:25:12.244Z,3.97
2022-07-25T18:27:43.962Z,3.17
2022-07-25T18:30:11.577Z,11.00
2022-07-25T18:32:38.714Z,5.28
2022-07-25T18:35:06.753Z,3.22
2022-07-25T18:37:33.785Z,5.18
2022-07-25T18:40:00.381Z,4.85
2022-07-25T18:42:29.957Z,3.20
2022-07-25T18:44:56.909Z,6.18
2022-07-25T18:47:25.935Z,5.88
2022-07-25T18:49:53.626Z,2.47
2022-07-25T18:52:21.064Z,2.67
2022-07-25T18:54:47.771Z,4.22
2022-07-25T18:57:14.778Z,7.03
2022-07-25T18:59:42.018Z,5.07
2022-07-25T19:02:08.812Z,2.33
2022-07-25T19:04:35.682Z,5.00
2022-07-25T19:07:02.457Z,4.40
2022-07-25T19:09:29.194Z,1.65
2022-07-25T19:11:56.526Z,5.05
2022-07-25T19:14:25.982Z,3.67
2022-07-25T19:16:53.805Z,2.33
2022-07-25T19:19:20.599Z,3.00
2022-07-25T19:21:47.421Z,4.88
2022-07-25T19:24:14.409Z,2.13
2022-07-25T19:26:41.410Z,3.22
2022-07-25T19:29:09.100Z,2.42
2022-07-25T19:31:38.082Z,2.55
2022-07-25T19:34:06.464Z,2.28
2022-07-25T19:36:33.691Z,1.67
2022-07-25T19:39:01.000Z,5.85
2022-07-25T19:41:28.100Z,3.08
2022-07-25T19:43:55.061Z,1.83
2022-07-25T19:46:21.794Z,2.13
2022-07-25T19:48:48.845Z,3.53
2022-07-25T19:51:15.614Z,2.28
2022-07-25T19:53:42.418Z,2.22
2022-07-25T19:56:09.147Z,3.13
2022-07-25T19:58:38.854Z,4.65
2022-07-25T20:01:07.623Z,3.58
2022-07-25T20:03:34.933Z,2.60
2022-07-25T20:06:07.594Z,3.25
2022-07-25T20:08:35.027Z,3.40
2022-07-25T20:11:01.700Z,1.88
2022-07-25T20:13:29.625Z,3.20
2022-07-25T20:15:57.160Z,2.40
2022-07-25T20:18:23.851Z,2.25
2022-07-25T20:20:50.630Z,3.17
2022-07-25T20:23:17.340Z,3.65
2022-07-25T20:25:44.313Z,2.40
2022-07-25T20:28:11.009Z,3.20
2022-07-25T20:30:37.755Z,5.03
2022-07-25T20:33:05.491Z,5.28
2022-07-25T20:35:36.456Z,3.03
2022-07-25T20:38:03.242Z,4.85
2022-07-25T20:40:36.290Z,4.20
2022-07-25T20:43:04.404Z,5.55
2022-07-25T20:45:31.015Z,5.65
2022-07-25T20:47:57.822Z,2.72
2022-07-25T20:50:24.482Z,2.47
2022-07-25T20:52:51.216Z,2.97
2022-07-25T20:55:17.813Z,2.55
2022-07-25T20:57:48.734Z,4.30
2022-07-25T21:00:17.342Z,2.97
2022-07-25T21:02:44.135Z,2.40
2022-07-25T21:05:10.881Z,2.75
2022-07-25T21:07:37.632Z,4.03
2022-07-25T21:10:04.760Z,2.30
2022-07-25T21:12:32.895Z,2.78
2022-07-25T21:15:01.002Z,3.40
2022-07-25T21:17:27.717Z,3.13
2022-07-25T21:19:54.313Z,8.43
2022-07-25T21:22:21.305Z,3.25
2022-07-25T21:24:49.515Z,2.30
2022-07-25T21:27:17.548Z,2.35
2022-07-25T21:29:44.481Z,3.85
2022-07-25T21:32:13.575Z,2.03
2022-07-25T21:34:41.504Z,4.30
2022-07-25T21:37:08.529Z,3.88
2022-07-25T21:39:35.753Z,3.10
2022-07-25T21:42:02.387Z,4.72
2022-07-25T21:44:30.932Z,3.97
2022-07-25T21:46:57.542Z,4.30
2022-07-25T21:49:42.857Z,2.63
2022-07-25T21:52:13.352Z,2.58
2022-07-25T21:54:43.940Z,3.53
2022-07-25T21:57:13.055Z,4.38
2022-07-25T21:59:41.818Z,2.75
2022-07-25T22:02:08.936Z,2.88
2022-07-25T22:04:35.747Z,2.65
2022-07-25T22:07:02.702Z,1.92
2022-07-25T22:09:29.347Z,2.30
2022-07-25T22:11:56.872Z,5.00
2022-07-25T22:14:23.822Z,2.63
2022-07-25T22:16:50.567Z,4.18
2022-07-25T22:19:19.810Z,5.78
2022-07-25T22:21:49.021Z,2.47
2022-07-25T22:24:15.817Z,2.42
2022-07-25T22:26:42.631Z,3.40
2022-07-25T22:29:09.770Z,3.88
2022-07-25T22:31:38.703Z,2.97
2022-07-25T22:34:05.684Z,2.90
2022-07-25T22:36:32.305Z,1.90
2022-07-25T22:38:58.929Z,2.67
2022-07-25T22:41:25.524Z,2.78
2022-07-25T22:43:58.008Z,2.60
2022-07-25T22:46:26.752Z,3.22
2022-07-25T22:48:53.700Z,4.43
2022-07-25T22:51:20.383Z,6.57
2022-07-25T22:53:46.996Z,4.45
2022-07-25T22:56:13.737Z,2.83
2022-07-25T22:58:40.370Z,2.97
2022-07-25T23:01:06.976Z,3.60
2022-07-25T23:03:35.497Z,5.15
2022-07-25T23:06:02.344Z,5.82
2022-07-25T23:08:29.223Z,2.97
2022-07-25T23:10:56.029Z,5.53
2022-07-25T23:13:22.664Z,6.65
2022-07-25T23:15:51.313Z,3.70
2022-07-25T23:18:18.911Z,7.30
2022-07-25T23:20:45.805Z,4.50
2022-07-25T23:23:12.928Z,5.72
2022-07-25T23:25:39.837Z,3.42
2022-07-25T23:28:06.475Z,6.05
2022-07-25T23:30:38.063Z,3.45
2022-07-25T23:33:06.817Z,4.72
2022-07-25T23:35:33.626Z,3.47
2022-07-25T23:38:00.219Z,2.45
2022-07-25T23:40:27.482Z,4.93
2022-07-25T23:42:54.379Z,11.50
2022-07-25T23:45:21.776Z,6.03
2022-07-25T23:47:51.076Z,3.00
2022-07-25T23:50:18.253Z,8.85
2022-07-25T23:52:44.848Z,4.65
2022-07-25T23:55:11.538Z,4.60
2022-07-25T23:57:38.185Z,3.97
